Time;durP1;ratioP1;P1;durP2;ratioP2;P2;SDS_P1;SDS_P2;PMS_P1;PMS_P2;Temp;Humidity;BMP_temperature;BMP_pressure;BME280_temperature;BME280_humidity;BME280_pressure;Samples;Min_cycle;Max_cycle;Signal;HPM_P1;HPM_P2
2023/07/21 00:01:03;;;;;;;7.80;5.43;;;15.50;99.90;;;;;;5046730;28;20209;-82
2023/07/21 00:03:32;;;;;;;9.35;5.97;;;15.40;99.90;;;;;;5045139;28;20601;-83
2023/07/21 00:05:59;;;;;;;7.38;5.32;;;15.40;99.90;;;;;;5040996;28;20203;-84
2023/07/21 00:08:29;;;;;;;5.80;5.28;;;15.30;99.90;;;;;;5036546;28;20202;-83
2023/07/21 00:10:56;;;;;;;7.60;5.95;;;15.30;99.90;;;;;;5036164;28;20215;-83
2023/07/21 00:13:26;;;;;;;8.20;5.60;;;15.30;99.90;;;;;;5035880;28;20266;-84
2023/07/21 00:15:53;;;;;;;5.28;4.22;;;15.30;99.90;;;;;;5041999;28;20200;-83
2023/07/21 00:18:22;;;;;;;8.05;6.35;;;15.30;99.90;;;;;;5036599;28;20295;-83
2023/07/21 00:20:50;;;;;;;6.65;5.78;;;15.30;99.90;;;;;;5037173;28;20227;-82
2023/07/21 00:23:20;;;;;;;6.90;5.05;;;15.30;99.90;;;;;;5035921;28;20232;-86
2023/07/21 00:25:48;;;;;;;6.05;5.45;;;15.20;99.90;;;;;;5039488;28;20331;-84
2023/07/21 00:28:17;;;;;;;8.30;5.38;;;15.20;99.90;;;;;;5044098;28;20284;-83
2023/07/21 00:30:48;;;;;;;5.40;4.90;;;15.20;99.90;;;;;;5035187;28;20238;-85
2023/07/21 00:33:15;;;;;;;11.68;5.93;;;15.20;99.90;;;;;;5049547;28;20216;-83
2023/07/21 00:35:44;;;;;;;9.55;6.40;;;15.20;99.90;;;;;;5038535;28;20288;-84
2023/07/21 00:38:11;;;;;;;10.85;6.85;;;15.20;99.90;;;;;;5043469;28;20312;-83
2023/07/21 00:40:39;;;;;;;10.43;7.40;;;15.20;99.90;;;;;;5041352;28;20283;-83
2023/07/21 00:43:08;;;;;;;7.85;7.00;;;15.20;99.90;;;;;;5039227;28;20717;-82
2023/07/21 00:45:37;;;;;;;11.57;7.40;;;15.10;99.90;;;;;;5046988;28;20208;-83
2023/07/21 00:48:08;;;;;;;10.90;8.00;;;15.10;99.90;;;;;;5038798;28;20227;-82
2023/07/21 00:50:41;;;;;;;8.40;7.55;;;15.10;99.90;;;;;;5042240;28;20199;-84
2023/07/21 00:53:11;;;;;;;10.93;8.05;;;15.10;99.90;;;;;;5031219;28;20254;-83
2023/07/21 00:55:39;;;;;;;7.80;7.00;;;15.10;99.90;;;;;;5042896;28;20243;-83
2023/07/21 00:58:07;;;;;;;9.95;8.95;;;15.10;99.90;;;;;;5039896;28;20283;-84
2023/07/21 01:00:34;;;;;;;12.32;7.50;;;15.10;99.90;;;;;;5049983;28;20669;-84
2023/07/21 01:03:03;;;;;;;10.15;8.90;;;15.10;99.90;;;;;;5043659;28;20255;-84
2023/07/21 01:05:33;;;;;;;9.57;8.68;;;15.10;99.90;;;;;;5051042;28;20306;-84
2023/07/21 01:08:00;;;;;;;12.88;11.57;;;15.10;99.90;;;;;;5044289;28;20212;-84
2023/07/21 01:10:30;;;;;;;14.95;10.85;;;15.10;99.90;;;;;;5041173;28;20223;-84
2023/07/21 01:12:58;;;;;;;13.77;12.00;;;15.10;99.90;;;;;;5075466;28;20204;-81
2023/07/21 01:15:27;;;;;;;17.75;12.50;;;15.10;99.90;;;;;;5052535;28;20257;-83
2023/07/21 01:17:55;;;;;;;12.07;10.80;;;15.10;99.90;;;;;;5039844;28;20195;-83
2023/07/21 01:20:23;;;;;;;16.33;10.88;;;15.10;99.90;;;;;;5041366;28;20235;-83
2023/07/21 01:22:54;;;;;;;18.35;14.52;;;15.10;99.90;;;;;;5043592;28;20223;-83
2023/07/21 01:25:23;;;;;;;12.35;10.77;;;15.10;99.90;;;;;;5042263;28;20243;-84
2023/07/21 01:27:52;;;;;;;15.50;11.20;;;15.00;99.90;;;;;;5038827;28;20286;-83
2023/07/21 01:30:22;;;;;;;13.55;12.25;;;15.00;99.90;;;;;;5045658;28;20220;-85
2023/07/21 01:32:52;;;;;;;13.70;11.10;;;14.90;99.90;;;;;;5040005;28;20188;-83
2023/07/21 01:35:21;;;;;;;13.55;11.32;;;15.00;99.90;;;;;;5042783;28;20215;-84
2023/07/21 01:37:49;;;;;;;15.48;11.00;;;15.00;99.90;;;;;;5051914;28;20237;-82
2023/07/21 01:40:17;;;;;;;12.70;11.40;;;14.80;99.90;;;;;;5050999;28;20196;-83
2023/07/21 01:43:05;;;;;;;11.93;10.73;;;14.90;99.90;;;;;;5049729;28;20298;-84
2023/07/21 01:45:32;;;;;;;15.98;10.25;;;14.80;99.90;;;;;;5046599;28;20287;-83
2023/07/21 01:47:59;;;;;;;11.05;9.93;;;14.90;99.90;;;;;;5052535;28;20204;-83
2023/07/21 01:50:27;;;;;;;16.90;14.07;;;14.90;99.90;;;;;;5056273;28;20226;-83
2023/07/21 01:52:56;;;;;;;11.95;10.32;;;14.90;99.90;;;;;;5047753;28;20267;-82
2023/07/21 01:55:26;;;;;;;15.45;11.10;;;14.90;99.90;;;;;;5049672;28;20586;-84
2023/07/21 01:57:59;;;;;;;12.35;10.98;;;15.00;99.90;;;;;;5034761;28;20243;-84
2023/07/21 02:00:33;;;;;;;14.60;11.95;;;15.00;99.90;;;;;;5046331;28;20234;-84
2023/07/21 02:03:02;;;;;;;19.33;13.30;;;15.00;99.90;;;;;;5041036;28;20213;-83
2023/07/21 02:05:30;;;;;;;15.82;12.23;;;15.00;99.90;;;;;;5048533;28;20279;-84
2023/07/21 02:07:57;;;;;;;17.40;11.60;;;14.90;99.90;;;;;;5037315;28;20291;-83
2023/07/21 02:10:25;;;;;;;15.05;12.60;;;15.00;99.90;;;;;;5052308;28;20250;-84
2023/07/21 02:12:51;;;;;;;16.63;11.20;;;15.00;99.90;;;;;;5053338;28;20236;-84
2023/07/21 02:15:20;;;;;;;14.88;11.40;;;15.00;99.90;;;;;;5054187;28;20234;-83
2023/07/21 02:17:48;;;;;;;14.57;13.15;;;15.10;99.90;;;;;;5052986;28;20198;-84
2023/07/21 02:20:18;;;;;;;11.25;10.13;;;15.10;99.90;;;;;;5048787;28;20678;-84
2023/07/21 02:22:44;;;;;;;16.02;11.75;;;15.10;99.90;;;;;;5045422;28;20374;-84
2023/07/21 02:25:12;;;;;;;18.92;13.88;;;15.10;99.90;;;;;;5047281;28;20457;-83
2023/07/21 02:27:40;;;;;;;18.83;14.18;;;15.10;99.90;;;;;;5038990;28;20623;-83
2023/07/21 02:30:08;;;;;;;14.20;11.90;;;15.00;99.90;;;;;;5044007;28;20753;-81
2023/07/21 02:32:36;;;;;;;13.85;10.63;;;15.10;99.90;;;;;;5043768;28;20655;-85
2023/07/21 02:35:06;;;;;;;13.88;11.80;;;15.20;99.90;;;;;;5048951;28;20223;-84
2023/07/21 02:37:32;;;;;;;13.90;12.05;;;15.10;99.90;;;;;;5051687;28;20614;-83
2023/07/21 02:40:01;;;;;;;16.35;13.98;;;15.10;99.90;;;;;;5037078;28;20690;-85
2023/07/21 02:42:28;;;;;;;14.00;12.23;;;15.10;99.90;;;;;;5053670;28;20263;-83
2023/07/21 02:44:55;;;;;;;15.60;12.40;;;15.10;99.90;;;;;;5056157;28;20227;-83
2023/07/21 02:47:22;;;;;;;17.33;14.07;;;15.20;99.90;;;;;;5048777;28;20205;-83
2023/07/21 02:49:50;;;;;;;21.02;13.52;;;15.10;99.90;;;;;;5046222;28;20219;-84
2023/07/21 02:52:17;;;;;;;15.82;14.07;;;15.00;99.90;;;;;;5055105;28;20649;-84
2023/07/21 02:54:44;;;;;;;19.35;15.80;;;15.00;99.90;;;;;;5052787;28;20227;-83
2023/07/21 02:57:11;;;;;;;20.10;15.85;;;15.00;99.90;;;;;;5047375;28;20296;-85
2023/07/21 02:59:38;;;;;;;17.85;13.63;;;15.00;99.90;;;;;;5043295;28;20239;-85
2023/07/21 03:02:06;;;;;;;14.88;13.27;;;15.00;99.90;;;;;;5056815;28;20657;-84
2023/07/21 03:04:34;;;;;;;18.48;14.13;;;15.10;99.90;;;;;;5045392;28;20251;-85
2023/07/21 03:07:03;;;;;;;17.75;13.93;;;15.00;99.90;;;;;;5048748;28;20200;-83
2023/07/21 03:09:30;;;;;;;18.65;14.23;;;15.10;99.90;;;;;;5046063;28;20228;-83
2023/07/21 03:11:59;;;;;;;22.52;14.60;;;15.00;99.90;;;;;;5047196;28;20727;-83
2023/07/21 03:14:26;;;;;;;16.23;13.55;;;14.90;99.90;;;;;;5054709;28;20262;-86
2023/07/21 03:16:54;;;;;;;14.80;13.32;;;14.90;99.90;;;;;;5046353;28;20640;-85
2023/07/21 03:19:21;;;;;;;11.40;10.25;;;14.90;99.90;;;;;;5045154;28;20208;-84
2023/07/21 03:21:49;;;;;;;12.15;11.02;;;14.90;99.90;;;;;;5041808;28;20208;-84
2023/07/21 03:24:18;;;;;;;11.45;10.43;;;14.90;99.90;;;;;;5048526;28;20258;-82
2023/07/21 03:26:46;;;;;;;10.63;9.60;;;14.90;99.90;;;;;;5076149;28;20199;-80
2023/07/21 03:29:13;;;;;;;13.63;9.50;;;15.00;99.90;;;;;;5056367;28;20207;-85
2023/07/21 03:31:39;;;;;;;10.38;9.38;;;14.90;99.90;;;;;;5049670;28;20235;-83
2023/07/21 03:34:06;;;;;;;11.32;8.85;;;14.90;99.90;;;;;;5049673;28;20223;-84
2023/07/21 03:36:34;;;;;;;10.40;7.93;;;15.00;99.90;;;;;;5047059;28;20208;-84
2023/07/21 03:39:01;;;;;;;9.68;8.63;;;14.90;99.90;;;;;;5047743;28;20242;-85
2023/07/21 03:41:30;;;;;;;10.60;8.65;;;14.90;99.90;;;;;;5040997;28;20229;-84
2023/07/21 03:43:57;;;;;;;9.23;8.43;;;15.00;99.90;;;;;;5050274;28;20227;-83
2023/07/21 03:46:25;;;;;;;9.85;8.05;;;14.90;99.90;;;;;;5047204;28;20577;-83
2023/07/21 03:48:52;;;;;;;8.52;7.63;;;14.90;99.90;;;;;;5043287;28;20254;-84
2023/07/21 03:51:19;;;;;;;9.38;7.80;;;15.00;99.90;;;;;;5052353;28;20212;-84
2023/07/21 03:53:46;;;;;;;13.30;8.77;;;15.00;99.90;;;;;;5043405;28;20698;-82
2023/07/21 03:56:13;;;;;;;10.77;7.43;;;15.00;99.90;;;;;;5048364;28;20200;-82
2023/07/21 03:58:42;;;;;;;10.88;8.00;;;15.10;99.90;;;;;;5053897;28;20207;-83
2023/07/21 04:01:09;;;;;;;9.55;8.65;;;15.20;99.90;;;;;;5048074;28;20283;-83
2023/07/21 04:03:36;;;;;;;8.68;7.80;;;15.10;99.90;;;;;;5047502;28;20251;-82
2023/07/21 04:06:07;;;;;;;9.20;7.68;;;15.10;99.90;;;;;;5055586;28;20286;-82
2023/07/21 04:08:35;;;;;;;9.10;7.65;;;15.10;99.90;;;;;;5054797;28;20698;-82
2023/07/21 04:11:02;;;;;;;9.77;7.90;;;15.10;99.90;;;;;;5041496;28;20195;-83
2023/07/21 04:13:28;;;;;;;9.27;8.20;;;15.20;99.90;;;;;;5042671;28;20262;-83
2023/07/21 04:15:59;;;;;;;8.65;6.20;;;15.30;99.90;;;;;;5047594;28;20235;-84
2023/07/21 04:18:26;;;;;;;9.25;8.35;;;15.30;99.90;;;;;;5049004;28;20236;-83
2023/07/21 04:20:54;;;;;;;8.55;7.60;;;15.40;99.90;;;;;;5044343;28;20213;-83
2023/07/21 04:23:21;;;;;;;6.72;6.10;;;15.40;99.90;;;;;;5041915;28;20252;-82
2023/07/21 04:25:48;;;;;;;8.75;6.32;;;15.30;99.90;;;;;;5042217;28;20211;-83
2023/07/21 04:28:15;;;;;;;6.95;6.25;;;15.40;99.90;;;;;;5045152;28;20293;-83
2023/07/21 04:30:42;;;;;;;10.45;6.68;;;15.40;99.90;;;;;;5041478;28;20287;-84
2023/07/21 04:33:10;;;;;;;9.30;6.82;;;15.50;99.90;;;;;;5046444;28;20229;-83
2023/07/21 04:35:37;;;;;;;7.88;7.07;;;15.50;99.90;;;;;;5043039;28;20272;-81
2023/07/21 04:38:04;;;;;;;7.18;6.40;;;15.50;99.90;;;;;;5048030;28;20202;-82
2023/07/21 04:40:31;;;;;;;8.95;6.68;;;15.50;99.90;;;;;;5043656;28;20741;-82
2023/07/21 04:42:58;;;;;;;11.48;8.50;;;15.50;99.90;;;;;;5046541;28;20205;-82
2023/07/21 04:45:25;;;;;;;15.80;7.50;;;15.50;99.90;;;;;;5050687;28;20308;-83
2023/07/21 04:47:53;;;;;;;7.25;6.65;;;15.60;99.90;;;;;;5041552;28;20294;-84
2023/07/21 04:50:21;;;;;;;9.50;6.70;;;15.70;99.90;;;;;;5045147;28;20200;-83
2023/07/21 04:52:48;;;;;;;9.65;8.52;;;15.80;99.90;;;;;;5041008;28;20250;-84
2023/07/21 04:55:16;;;;;;;10.02;7.30;;;15.80;99.90;;;;;;5051164;28;20285;-82
2023/07/21 04:57:43;;;;;;;7.10;6.40;;;15.90;99.90;;;;;;5047749;28;20572;-83
2023/07/21 05:00:12;;;;;;;13.18;8.32;;;15.90;99.90;;;;;;5038873;28;20318;-82
2023/07/21 05:02:39;;;;;;;8.30;6.75;;;15.90;99.90;;;;;;5049711;28;20285;-83
2023/07/21 05:05:06;;;;;;;8.77;7.25;;;16.00;99.90;;;;;;5051584;28;20309;-84
2023/07/21 05:07:38;;;;;;;7.22;6.43;;;16.00;99.90;;;;;;5044793;28;20226;-81
2023/07/21 05:10:06;;;;;;;9.38;6.07;;;16.00;99.90;;;;;;5051215;28;20288;-80
2023/07/21 05:12:33;;;;;;;8.52;7.63;;;16.10;99.90;;;;;;5054083;28;20291;-81
2023/07/21 05:15:00;;;;;;;9.70;7.67;;;16.20;99.90;;;;;;5042441;28;20229;-82
2023/07/21 05:17:27;;;;;;;7.55;6.47;;;16.30;99.90;;;;;;5049633;28;20477;-81
2023/07/21 05:19:54;;;;;;;6.70;5.90;;;16.40;99.90;;;;;;5051193;28;20252;-82
2023/07/21 05:22:21;;;;;;;7.50;6.50;;;16.40;99.90;;;;;;5053495;28;20441;-79
2023/07/21 05:24:53;;;;;;;6.97;6.27;;;16.50;99.90;;;;;;5047808;28;20489;-78
2023/07/21 05:27:22;;;;;;;7.27;6.57;;;16.60;99.90;;;;;;5046350;28;20451;-79
2023/07/21 05:29:48;;;;;;;7.80;7.10;;;16.80;99.90;;;;;;5045409;28;20543;-80
2023/07/21 05:32:15;;;;;;;7.50;6.00;;;17.10;99.90;;;;;;5042288;28;20529;-79
2023/07/21 05:34:42;;;;;;;6.83;4.47;;;17.40;99.90;;;;;;5044617;28;20520;-78
2023/07/21 05:37:11;;;;;;;7.90;4.40;;;18.20;99.90;;;;;;5047955;28;20476;-78
2023/07/21 05:39:39;;;;;;;4.70;3.87;;;19.40;99.90;;;;;;5051756;28;20476;-78
2023/07/21 05:42:09;;;;;;;4.43;4.03;;;20.50;99.90;;;;;;5049453;28;20448;-78
2023/07/21 05:44:37;;;;;;;7.97;5.17;;;21.20;99.90;;;;;;5050247;28;20489;-77
2023/07/21 05:47:05;;;;;;;5.10;4.47;;;21.00;99.90;;;;;;5046444;28;20465;-78
2023/07/21 05:49:35;;;;;;;5.20;3.90;;;21.00;99.90;;;;;;5052334;28;20541;-77
2023/07/21 05:52:01;;;;;;;5.13;3.50;;;20.80;99.90;;;;;;5037991;28;20448;-80
2023/07/21 05:54:28;;;;;;;5.33;4.80;;;20.70;99.90;;;;;;5039055;28;20516;-78
2023/07/21 05:56:56;;;;;;;7.40;5.13;;;20.70;99.90;;;;;;5048767;28;20791;-77
2023/07/21 05:59:24;;;;;;;6.13;4.90;;;20.50;99.90;;;;;;5036978;28;20477;-78
2023/07/21 06:01:53;;;;;;;4.20;3.80;;;20.20;99.90;;;;;;5036637;28;20873;-77
2023/07/21 06:04:19;;;;;;;7.50;3.93;;;20.00;99.90;;;;;;5041003;28;20482;-77
2023/07/21 06:06:46;;;;;;;5.23;4.73;;;20.00;99.90;;;;;;5049932;28;20487;-77
2023/07/21 06:09:13;;;;;;;9.83;4.50;;;19.80;99.90;;;;;;5041921;28;21059;-77
2023/07/21 06:11:40;;;;;;;8.73;4.13;;;19.70;99.90;;;;;;5041195;28;20931;-76
2023/07/21 06:14:07;;;;;;;7.07;4.43;;;19.80;99.90;;;;;;5045089;28;20522;-76
2023/07/21 06:16:36;;;;;;;6.37;4.40;;;19.80;99.90;;;;;;5047833;28;20447;-76
2023/07/21 06:19:04;;;;;;;4.20;3.90;;;19.80;99.90;;;;;;5051665;28;20867;-76
2023/07/21 06:21:31;;;;;;;6.27;4.00;;;19.90;99.90;;;;;;5048326;28;20454;-77
2023/07/21 06:23:58;;;;;;;6.47;4.27;;;19.80;99.90;;;;;;5042888;28;20538;-76
2023/07/21 06:26:25;;;;;;;8.00;3.93;;;20.10;99.90;;;;;;5039744;28;20525;-76
2023/07/21 06:28:52;;;;;;;3.10;2.90;;;20.30;99.90;;;;;;5044381;28;20864;-76
2023/07/21 06:31:21;;;;;;;4.03;3.40;;;20.40;99.90;;;;;;5039940;28;20453;-76
2023/07/21 06:33:50;;;;;;;4.50;3.37;;;20.40;99.90;;;;;;5046408;28;20502;-77
2023/07/21 06:36:17;;;;;;;3.90;3.17;;;20.40;99.90;;;;;;5051642;28;20536;-77
2023/07/21 06:38:44;;;;;;;6.50;4.30;;;20.20;99.90;;;;;;5044133;28;20454;-77
2023/07/21 06:41:11;;;;;;;5.90;4.77;;;20.10;99.90;;;;;;5051203;28;20998;-75
2023/07/21 06:43:38;;;;;;;4.80;3.60;;;20.10;99.90;;;;;;5042958;28;20474;-76
2023/07/21 06:46:06;;;;;;;4.93;3.97;;;20.00;99.90;;;;;;5045782;28;20464;-76
2023/07/21 06:48:32;;;;;;;6.27;3.50;;;20.20;99.90;;;;;;5041192;28;20853;-75
2023/07/21 06:51:01;;;;;;;6.90;3.93;;;20.20;99.90;;;;;;5044352;28;20511;-76
2023/07/21 06:53:28;;;;;;;3.97;3.50;;;20.50;99.90;;;;;;5040589;28;20547;-76
2023/07/21 06:55:55;;;;;;;4.17;3.80;;;21.00;99.90;;;;;;5040526;28;20449;-76
2023/07/21 06:58:22;;;;;;;4.13;3.43;;;21.30;99.90;;;;;;5044106;28;20790;-75
2023/07/21 07:00:50;;;;;;;8.63;3.50;;;22.20;99.90;;;;;;5041624;28;20451;-75
2023/07/21 07:03:16;;;;;;;4.73;3.37;;;23.60;99.90;;;;;;5037904;28;20478;-73
2023/07/21 07:05:45;;;;;;;3.73;2.83;;;24.80;99.90;;;;;;5043627;28;20937;-75
2023/07/21 07:08:14;;;;;;;3.20;2.83;;;26.00;98.60;;;;;;5035080;28;20959;-74
2023/07/21 07:10:41;;;;;;;3.23;2.93;;;27.30;94.30;;;;;;5038931;28;20451;-75
2023/07/21 07:13:08;;;;;;;4.60;2.83;;;27.90;92.30;;;;;;5042741;28;20502;-76
2023/07/21 07:15:35;;;;;;;4.37;2.27;;;28.10;90.60;;;;;;5042990;28;20565;-76
2023/07/21 07:18:03;;;;;;;4.00;3.60;;;27.60;90.00;;;;;;5042000;28;20518;-77
2023/07/21 07:20:30;;;;;;;6.00;3.23;;;27.30;90.50;;;;;;5039440;28;20534;-77
2023/07/21 07:22:57;;;;;;;2.73;2.43;;;27.70;90.40;;;;;;5048719;28;20525;-77
2023/07/21 07:25:26;;;;;;;4.17;3.00;;;27.60;90.10;;;;;;5049845;28;20482;-77
2023/07/21 07:27:53;;;;;;;6.40;3.40;;;27.00;90.90;;;;;;5040789;28;20468;-77
2023/07/21 07:30:20;;;;;;;10.80;3.80;;;26.40;91.00;;;;;;5042945;28;20443;-76
2023/07/21 07:32:47;;;;;;;5.23;3.70;;;26.40;91.70;;;;;;5044933;28;20453;-77
2023/07/21 07:35:16;;;;;;;5.27;4.17;;;26.70;91.20;;;;;;5043433;28;20855;-77
2023/07/21 07:37:43;;;;;;;4.53;3.20;;;26.90;91.20;;;;;;5052267;28;20507;-76
2023/07/21 07:40:14;;;;;;;4.33;3.30;;;27.70;90.20;;;;;;5042151;28;20458;-77
2023/07/21 07:42:46;;;;;;;3.70;2.77;;;27.80;89.00;;;;;;5051068;28;20449;-76
2023/07/21 07:45:13;;;;;;;4.10;3.00;;;27.80;87.50;;;;;;5039219;28;20487;-76
2023/07/21 07:47:40;;;;;;;5.23;3.63;;;27.90;88.10;;;;;;5038999;28;20534;-76
2023/07/21 07:50:09;;;;;;;5.13;2.67;;;28.50;86.80;;;;;;5043271;28;20913;-76
2023/07/21 07:52:36;;;;;;;6.43;3.33;;;29.20;83.50;;;;;;5038323;28;20936;-77
2023/07/21 07:55:04;;;;;;;4.17;2.60;;;29.80;81.20;;;;;;5042859;28;20474;-77
2023/07/21 07:57:31;;;;;;;5.30;3.70;;;30.20;81.70;;;;;;5042689;28;20450;-74
2023/07/21 08:00:00;;;;;;;3.00;2.70;;;29.90;78.60;;;;;;5048464;28;20794;-77
2023/07/21 08:02:27;;;;;;;3.10;2.77;;;29.60;77.80;;;;;;5042478;28;20956;-74
2023/07/21 08:04:54;;;;;;;2.80;2.50;;;30.20;79.30;;;;;;5038240;28;20501;-74
2023/07/21 08:07:21;;;;;;;4.37;2.63;;;30.80;77.50;;;;;;5043247;28;20444;-76
2023/07/21 08:09:48;;;;;;;3.20;2.43;;;31.10;76.60;;;;;;5035651;28;20454;-76
2023/07/21 08:12:15;;;;;;;5.37;4.47;;;31.60;75.60;;;;;;5048763;28;20434;-76
2023/07/21 08:14:42;;;;;;;3.00;2.80;;;31.80;75.20;;;;;;5037148;28;20455;-75
2023/07/21 08:17:10;;;;;;;3.40;2.90;;;32.20;74.70;;;;;;5047175;28;20470;-77
2023/07/21 08:19:37;;;;;;;3.60;3.30;;;32.20;73.60;;;;;;5037342;28;20457;-77
2023/07/21 08:22:06;;;;;;;10.13;4.30;;;31.60;73.20;;;;;;5044559;28;20493;-77
2023/07/21 08:24:32;;;;;;;4.50;3.80;;;30.50;76.00;;;;;;5041144;28;20489;-76
2023/07/21 08:27:00;;;;;;;6.27;3.47;;;30.10;77.20;;;;;;5037137;28;20486;-77
2023/07/21 08:29:27;;;;;;;4.37;3.73;;;29.60;76.70;;;;;;5039467;28;20454;-77
2023/07/21 08:31:54;;;;;;;3.10;2.80;;;30.00;77.00;;;;;;5038437;28;20447;-77
2023/07/21 08:34:22;;;;;;;4.60;3.70;;;30.20;78.10;;;;;;5038811;28;20561;-77
2023/07/21 08:36:49;;;;;;;4.50;3.30;;;30.40;77.30;;;;;;5038203;28;20454;-77
2023/07/21 08:39:17;;;;;;;3.87;2.80;;;30.20;77.80;;;;;;5043666;28;20489;-77
2023/07/21 08:41:46;;;;;;;5.83;3.77;;;30.30;76.60;;;;;;5042716;28;20516;-78
2023/07/21 08:44:15;;;;;;;4.03;3.57;;;30.90;75.30;;;;;;5047664;28;20471;-77
2023/07/21 08:46:42;;;;;;;4.20;3.40;;;31.40;74.60;;;;;;5040163;28;20450;-75
2023/07/21 08:49:09;;;;;;;4.43;3.67;;;31.50;72.20;;;;;;5035155;28;20941;-77
2023/07/21 08:51:37;;;;;;;3.90;3.37;;;31.30;72.80;;;;;;5036589;28;20449;-78
2023/07/21 08:54:04;;;;;;;4.00;2.80;;;30.90;73.80;;;;;;5044868;28;20529;-78
2023/07/21 08:56:31;;;;;;;3.83;2.50;;;30.30;73.10;;;;;;5034860;28;20534;-78
2023/07/21 08:58:58;;;;;;;4.73;3.27;;;30.50;72.50;;;;;;5034650;28;20446;-76
2023/07/21 09:01:25;;;;;;;6.40;3.40;;;31.00;71.30;;;;;;5033959;28;20875;-76
2023/07/21 09:03:52;;;;;;;9.43;3.07;;;31.50;70.90;;;;;;5045626;28;20569;-76
2023/07/21 09:06:19;;;;;;;5.43;3.53;;;31.70;70.70;;;;;;5044319;28;20517;-77
2023/07/21 09:08:48;;;;;;;7.33;3.90;;;31.60;70.10;;;;;;5052949;28;20590;-75
2023/07/21 09:11:15;;;;;;;9.80;3.43;;;32.00;69.90;;;;;;5044248;28;20550;-77
2023/07/21 09:13:51;;;;;;;2.87;2.67;;;32.10;68.90;;;;;;5041058;28;20480;-77
2023/07/21 09:16:19;;;;;;;3.53;3.10;;;32.60;68.70;;;;;;5047533;28;20474;-77
2023/07/21 09:18:49;;;;;;;8.60;3.77;;;32.60;66.70;;;;;;5046000;28;20504;-76
2023/07/21 09:21:19;;;;;;;4.47;3.30;;;31.60;68.50;;;;;;5038836;28;20538;-80
2023/07/21 09:23:48;;;;;;;5.20;3.87;;;30.40;70.00;;;;;;5048012;28;20813;-77
2023/07/21 09:26:21;;;;;;;6.53;3.03;;;29.60;72.20;;;;;;5050423;28;20486;-78
2023/07/21 09:28:50;;;;;;;4.13;3.20;;;29.80;72.60;;;;;;5052747;28;20442;-78
2023/07/21 09:31:17;;;;;;;6.00;2.63;;;29.60;72.10;;;;;;5038107;28;20433;-77
2023/07/21 09:33:46;;;;;;;3.70;2.50;;;29.50;72.90;;;;;;5048696;28;20492;-77
2023/07/21 09:36:15;;;;;;;4.83;2.57;;;29.70;71.50;;;;;;5041013;28;20497;-77
2023/07/21 09:38:43;;;;;;;4.60;3.00;;;29.80;71.20;;;;;;5052144;28;20450;-76
2023/07/21 09:41:13;;;;;;;3.43;2.70;;;29.50;71.50;;;;;;5040232;28;20442;-78
2023/07/21 09:43:40;;;;;;;4.10;2.47;;;29.50;71.10;;;;;;5047697;28;20486;-76
2023/07/21 09:46:08;;;;;;;5.63;3.13;;;29.80;73.50;;;;;;5051728;28;21020;-76
2023/07/21 09:48:37;;;;;;;3.73;2.67;;;29.60;71.90;;;;;;5051186;28;20811;-76
2023/07/21 09:51:07;;;;;;;3.30;2.20;;;30.10;73.20;;;;;;5041677;28;20532;-77
2023/07/21 09:53:37;;;;;;;5.67;3.37;;;30.50;71.70;;;;;;5046821;28;20469;-76
2023/07/21 09:56:06;;;;;;;10.03;3.20;;;30.50;70.70;;;;;;5041984;28;20474;-76
2023/07/21 09:58:39;;;;;;;4.13;2.37;;;30.30;72.90;;;;;;5050092;28;20457;-77
2023/07/21 10:01:06;;;;;;;2.97;2.50;;;30.00;70.20;;;;;;5043464;28;20482;-76
2023/07/21 10:03:35;;;;;;;2.63;2.40;;;30.10;71.00;;;;;;5049382;28;21043;-78
2023/07/21 10:06:03;;;;;;;2.10;1.83;;;30.00;69.10;;;;;;5042229;28;20487;-77
2023/07/21 10:08:33;;;;;;;2.83;2.27;;;30.00;69.20;;;;;;5050718;28;20520;-78
2023/07/21 10:11:02;;;;;;;9.57;8.70;;;30.50;68.80;;;;;;5046717;28;20453;-78
2023/07/21 10:13:31;;;;;;;2.63;2.10;;;30.90;68.30;;;;;;5048858;28;20561;-78
2023/07/21 10:16:02;;;;;;;8.23;3.60;;;30.40;69.80;;;;;;5036494;28;20469;-78
2023/07/21 10:18:29;;;;;;;2.97;2.00;;;30.50;68.10;;;;;;5043531;28;20565;-78
2023/07/21 10:20:57;;;;;;;4.43;2.90;;;30.40;66.70;;;;;;5049035;28;20532;-78
2023/07/21 10:23:26;;;;;;;4.00;2.63;;;30.20;68.00;;;;;;5042575;28;20508;-77
2023/07/21 10:26:01;;;;;;;5.97;3.37;;;29.30;68.00;;;;;;5041874;28;20494;-79
2023/07/21 10:28:38;;;;;;;5.80;3.00;;;28.60;70.00;;;;;;5036763;28;20446;-78
2023/07/21 10:31:39;;;;;;;3.47;2.57;;;28.40;74.40;;;;;;5038732;28;20442;-78
2023/07/21 10:34:11;;;;;;;4.50;2.80;;;28.80;73.00;;;;;;5042797;28;20466;-78
2023/07/21 10:36:44;;;;;;;3.23;2.93;;;29.10;70.50;;;;;;5035719;28;20571;-80
2023/07/21 10:39:16;;;;;;;3.43;2.60;;;28.90;70.70;;;;;;5040504;28;20447;-79
2023/07/21 10:41:43;;;;;;;4.70;2.53;;;28.90;71.30;;;;;;5050404;28;20454;-79
2023/07/21 10:44:12;;;;;;;14.10;5.00;;;29.00;70.70;;;;;;5038852;28;20498;-79
2023/07/21 10:46:42;;;;;;;4.90;3.13;;;29.00;71.80;;;;;;5046326;28;20488;-79
2023/07/21 10:49:10;;;;;;;8.10;4.30;;;28.50;72.40;;;;;;5040677;28;20861;-78
2023/07/21 10:51:38;;;;;;;23.77;9.10;;;28.10;72.00;;;;;;5038880;28;20921;-78
2023/07/21 10:54:05;;;;;;;21.10;8.33;;;28.10;74.10;;;;;;5037873;28;20557;-79
2023/07/21 10:56:35;;;;;;;11.70;6.57;;;27.90;74.10;;;;;;5040688;28;20445;-79
2023/07/21 10:59:03;;;;;;;8.20;4.67;;;27.90;74.80;;;;;;5042661;28;20819;-79
2023/07/21 11:01:31;;;;;;;7.77;4.20;;;27.60;73.00;;;;;;5040165;28;20455;-80
2023/07/21 11:03:59;;;;;;;5.77;2.90;;;27.30;73.70;;;;;;5039468;28;20462;-79
2023/07/21 11:06:27;;;;;;;8.70;4.20;;;27.10;73.70;;;;;;5038234;28;20482;-78
2023/07/21 11:08:54;;;;;;;3.93;3.40;;;27.00;75.90;;;;;;5036482;28;20467;-77
2023/07/21 11:11:22;;;;;;;5.63;3.07;;;27.10;74.00;;;;;;5046170;28;20528;-77
2023/07/21 11:13:49;;;;;;;5.27;2.80;;;26.90;73.90;;;;;;5047115;28;20544;-79
2023/07/21 11:16:16;;;;;;;5.97;3.90;;;27.00;74.90;;;;;;5044011;28;20446;-79
2023/07/21 11:18:43;;;;;;;4.60;2.70;;;26.90;74.50;;;;;;5046607;28;20558;-78
2023/07/21 11:21:12;;;;;;;4.63;2.63;;;26.40;75.40;;;;;;5040146;28;20449;-79
2023/07/21 11:23:40;;;;;;;5.73;2.50;;;26.20;76.20;;;;;;5042169;28;20466;-77
2023/07/21 11:26:09;;;;;;;4.63;2.10;;;25.90;77.30;;;;;;5039011;28;20529;-78
2023/07/21 11:28:39;;;;;;;4.60;2.50;;;25.70;77.50;;;;;;5037158;28;20457;-78
2023/07/21 11:31:11;;;;;;;4.03;3.00;;;25.90;77.70;;;;;;5035409;28;20462;-79
2023/07/21 11:33:45;;;;;;;6.50;2.30;;;26.00;77.00;;;;;;5051003;28;20469;-79
2023/07/21 11:36:15;;;;;;;5.83;2.73;;;26.20;75.70;;;;;;5047176;28;20478;-79
2023/07/21 11:38:56;;;;;;;2.50;2.07;;;26.00;76.40;;;;;;5043896;28;20449;-78
2023/07/21 11:41:36;;;;;;;3.10;2.47;;;26.00;75.60;;;;;;5039106;28;20451;-78
2023/07/21 11:44:05;;;;;;;5.83;1.77;;;25.70;77.70;;;;;;5021763;28;20458;-79
2023/07/21 11:46:33;;;;;;;3.63;2.03;;;25.60;78.50;;;;;;5042699;28;20484;-78
2023/07/21 11:49:01;;;;;;;3.63;2.57;;;25.30;77.60;;;;;;5054435;28;20948;-78
2023/07/21 11:51:30;;;;;;;4.23;2.23;;;25.30;78.00;;;;;;5040899;28;20451;-78
2023/07/21 11:53:59;;;;;;;3.40;2.70;;;25.40;78.60;;;;;;5037206;28;20481;-77
2023/07/21 11:56:27;;;;;;;2.57;2.37;;;25.40;77.30;;;;;;5037233;28;20516;-78
2023/07/21 11:58:54;;;;;;;3.90;2.57;;;25.30;77.90;;;;;;5038471;28;20786;-78
2023/07/21 12:01:21;;;;;;;3.70;2.80;;;25.10;76.50;;;;;;5034930;28;20952;-77
2023/07/21 12:03:48;;;;;;;2.90;2.60;;;25.30;78.90;;;;;;5051315;28;20851;-78
2023/07/21 12:06:15;;;;;;;3.00;2.63;;;25.30;77.30;;;;;;5039525;28;20487;-77
2023/07/21 12:08:44;;;;;;;2.50;2.30;;;25.20;77.40;;;;;;5041682;28;20977;-79
2023/07/21 12:11:11;;;;;;;4.23;3.10;;;24.80;76.80;;;;;;5043657;28;20509;-78
2023/07/21 12:13:38;;;;;;;4.10;2.67;;;24.80;76.70;;;;;;5039591;28;20569;-78
2023/07/21 12:16:07;;;;;;;6.03;2.63;;;24.80;77.90;;;;;;5041591;28;20569;-78
2023/07/21 12:18:33;;;;;;;3.43;2.80;;;24.50;78.40;;;;;;5042431;28;20450;-77
2023/07/21 12:21:00;;;;;;;8.73;5.43;;;24.50;77.60;;;;;;5039745;28;20447;-78
2023/07/21 12:23:27;;;;;;;2.57;2.10;;;24.70;77.00;;;;;;5045258;28;20491;-78
2023/07/21 12:25:55;;;;;;;3.53;3.23;;;24.60;78.90;;;;;;5039915;28;20574;-78
2023/07/21 12:28:22;;;;;;;4.00;2.60;;;24.20;77.30;;;;;;5043385;28;20510;-77
2023/07/21 12:30:49;;;;;;;2.73;2.53;;;23.80;77.60;;;;;;5046814;28;20449;-78
2023/07/21 12:33:16;;;;;;;3.70;3.40;;;23.70;78.90;;;;;;5040531;28;20475;-77
2023/07/21 12:35:45;;;;;;;4.23;2.53;;;23.60;79.20;;;;;;5046323;28;20525;-78
2023/07/21 12:38:12;;;;;;;2.23;2.03;;;23.80;79.50;;;;;;5043449;28;20451;-77
2023/07/21 12:40:41;;;;;;;4.97;2.00;;;24.00;78.50;;;;;;5040738;28;20537;-78
2023/07/21 12:43:09;;;;;;;2.60;2.13;;;24.10;77.20;;;;;;5044196;28;20987;-77
2023/07/21 12:45:36;;;;;;;4.53;2.43;;;24.40;77.60;;;;;;5049142;28;20521;-77
2023/07/21 12:48:03;;;;;;;4.23;2.10;;;24.60;78.70;;;;;;5043243;28;20656;-78